Time;durP1;ratioP1;P1;durP2;ratioP2;P2;SDS_P1;SDS_P2;PMS_P1;PMS_P2;Temp;Humidity;BMP_temperature;BMP_pressure;BME280_temperature;BME280_humidity;BME280_pressure;Samples;Min_cycle;Max_cycle;Signal;HPM_P1;HPM_P2
2022/03/29 00:00:39;;;;;;;16.17;7.00;;;;;;;13.32;36.79;98494.75;4991568;28;20081;-54
2022/03/29 00:03:24;;;;;;;12.70;6.40;;;;;;;13.32;36.86;98499.22;4991209;28;20146;-54
2022/03/29 00:06:08;;;;;;;14.60;6.40;;;;;;;13.22;37.20;98496.50;4991827;28;20634;-55
2022/03/29 00:08:53;;;;;;;13.23;6.50;;;;;;;13.15;37.15;98489.13;4991473;28;20498;-57
2022/03/29 00:11:38;;;;;;;15.35;7.03;;;;;;;13.17;36.84;98494.28;4991668;28;20420;-57
2022/03/29 00:14:22;;;;;;;15.23;6.32;;;;;;;13.24;36.51;98477.00;4991620;28;20042;-56
2022/03/29 00:17:07;;;;;;;15.43;6.85;;;;;;;13.40;36.52;98481.78;4991483;28;20104;-55
2022/03/29 00:19:51;;;;;;;20.67;7.97;;;;;;;13.41;35.99;98485.25;4990695;28;20046;-56
2022/03/29 00:22:36;;;;;;;16.20;6.75;;;;;;;13.40;36.29;98480.94;4991417;28;20050;-57
2022/03/29 00:25:21;;;;;;;15.13;6.95;;;;;;;13.34;36.24;98474.44;4993966;28;20409;-57
2022/03/29 00:28:06;;;;;;;15.38;7.18;;;;;;;13.36;36.00;98469.88;4993782;28;20449;-57
2022/03/29 00:30:51;;;;;;;13.52;6.05;;;;;;;13.52;37.42;98464.16;4994284;28;20199;-57
2022/03/29 00:33:36;;;;;;;12.63;6.40;;;;;;;13.34;36.05;98461.28;4994443;28;20057;-56
2022/03/29 00:36:21;;;;;;;19.38;7.93;;;;;;;13.18;36.41;98459.09;4980473;28;20038;-56
2022/03/29 00:39:06;;;;;;;13.65;6.35;;;;;;;13.10;36.44;98459.75;4979694;28;20104;-59
2022/03/29 00:41:52;;;;;;;12.02;6.25;;;;;;;13.03;37.01;98458.59;4966579;28;20038;-56
2022/03/29 00:44:38;;;;;;;13.85;6.72;;;;;;;12.99;36.93;98452.75;4980888;28;20042;-58
2022/03/29 00:47:24;;;;;;;14.52;6.32;;;;;;;13.00;37.50;98459.69;4980822;28;20038;-56
2022/03/29 00:50:08;;;;;;;14.38;7.22;;;;;;;12.88;37.23;98460.69;4967013;28;20047;-57
2022/03/29 00:52:53;;;;;;;14.20;6.03;;;;;;;12.88;37.21;98445.78;4980812;28;20073;-57
2022/03/29 00:55:39;;;;;;;16.13;6.85;;;;;;;12.87;37.26;98445.91;4995174;28;20443;-57
2022/03/29 00:58:24;;;;;;;17.65;7.22;;;;;;;12.74;37.74;98446.09;4995647;28;20253;-56
2022/03/29 01:01:10;;;;;;;15.02;7.32;;;;;;;12.62;37.69;98446.13;4995233;28;20042;-55
2022/03/29 01:03:55;;;;;;;14.70;7.13;;;;;;;12.57;37.95;98432.53;4995228;28;20050;-55
2022/03/29 01:06:39;;;;;;;12.40;5.78;;;;;;;12.50;38.09;98429.59;4995090;28;20050;-56
2022/03/29 01:09:26;;;;;;;13.68;5.97;;;;;;;12.49;38.06;98427.06;4980305;28;20109;-55
2022/03/29 01:12:10;;;;;;;15.57;7.03;;;;;;;12.43;38.48;98418.78;4995015;28;20054;-55
2022/03/29 01:14:56;;;;;;;17.77;7.22;;;;;;;12.49;38.06;98427.06;4995063;28;20042;-57
2022/03/29 01:17:43;;;;;;;18.00;7.45;;;;;;;12.43;38.20;98418.78;4995481;28;20387;-57
2022/03/29 01:20:31;;;;;;;13.15;6.80;;;;;;;12.36;38.29;98411.50;4994761;28;20038;-56
2022/03/29 01:23:17;;;;;;;14.15;6.78;;;;;;;12.32;38.50;98410.94;4993970;28;20074;-57
2022/03/29 01:26:02;;;;;;;13.23;7.35;;;;;;;12.38;38.98;98409.59;4994676;28;20042;-56
2022/03/29 01:28:47;;;;;;;16.75;7.82;;;;;;;12.36;38.48;98414.13;4994641;28;20129;-56
2022/03/29 01:31:34;;;;;;;14.70;6.90;;;;;;;12.31;38.70;98406.63;4993770;28;20054;-56
2022/03/29 01:34:21;;;;;;;15.05;7.15;;;;;;;12.29;38.74;98395.44;4994335;28;20108;-57
2022/03/29 01:37:07;;;;;;;12.32;6.03;;;;;;;12.35;38.99;98401.94;4993313;28;20073;-58
2022/03/29 01:39:51;;;;;;;15.02;6.97;;;;;;;12.30;38.73;98394.47;4979647;28;20043;-57
2022/03/29 01:42:37;;;;;;;14.32;7.18;;;;;;;12.25;39.00;98394.00;4979753;28;20042;-57
2022/03/29 01:45:24;;;;;;;15.85;7.85;;;;;;;12.16;39.16;98390.31;4994452;28;20050;-55
2022/03/29 01:48:08;;;;;;;18.02;6.95;;;;;;;12.20;40.23;98378.63;4994380;28;20425;-56
2022/03/29 01:50:53;;;;;;;14.85;7.15;;;;;;;12.16;39.15;98383.28;4979551;28;20100;-57
2022/03/29 01:53:38;;;;;;;15.27;7.78;;;;;;;12.12;39.25;98378.41;4993438;28;20054;-57
2022/03/29 01:56:27;;;;;;;15.57;7.22;;;;;;;12.21;39.48;98366.31;4994208;28;20047;-57
2022/03/29 01:59:12;;;;;;;22.75;7.97;;;;;;;12.24;39.00;98363.44;4994280;28;20042;-56
2022/03/29 02:01:56;;;;;;;17.80;7.60;;;;;;;12.19;39.34;98366.47;4994295;28;20060;-59
2022/03/29 02:04:41;;;;;;;18.08;8.07;;;;;;;12.14;39.07;98363.38;4964767;28;20038;-57
2022/03/29 02:07:25;;;;;;;17.30;7.38;;;;;;;12.06;39.32;98358.72;4994301;28;20053;-59
2022/03/29 02:10:11;;;;;;;15.35;7.75;;;;;;;12.12;39.57;98352.16;4965505;28;20038;-57
2022/03/29 02:12:56;;;;;;;17.65;7.30;;;;;;;12.17;39.40;98353.44;4979480;28;20096;-57
2022/03/29 02:15:41;;;;;;;13.90;7.00;;;;;;;12.19;39.29;98341.00;4979515;28;20073;-55
2022/03/29 02:18:26;;;;;;;14.55;7.28;;;;;;;12.24;39.19;98343.25;4994194;28;20050;-57
2022/03/29 02:21:14;;;;;;;20.02;7.25;;;;;;;12.43;39.32;98339.13;4979307;28;20047;-52
2022/03/29 02:24:00;;;;;;;17.33;6.28;;;;;;;12.41;40.10;98343.66;4993907;28;20494;-58
2022/03/29 02:26:44;;;;;;;18.48;7.13;;;;;;;12.56;38.67;98342.41;4979391;28;20069;-58
2022/03/29 02:29:29;;;;;;;19.05;6.18;;;;;;;12.92;40.58;98341.19;4978736;28;20113;-57
2022/03/29 02:32:14;;;;;;;14.27;6.00;;;;;;;12.54;39.50;98340.84;4993389;28;20057;-55
2022/03/29 02:34:59;;;;;;;13.52;6.63;;;;;;;12.36;39.58;98336.16;4978812;28;20053;-57
2022/03/29 02:37:44;;;;;;;14.75;7.20;;;;;;;12.51;38.87;98341.09;4993396;28;20042;-56
2022/03/29 02:40:29;;;;;;;11.63;5.00;;;;;;;12.95;41.98;98338.31;4977686;28;20049;-57
2022/03/29 02:43:14;;;;;;;10.45;5.15;;;;;;;13.49;41.59;98332.00;4992438;28;20054;-53
2022/03/29 02:45:58;;;;;;;11.35;5.03;;;;;;;13.76;39.99;98338.44;4988735;28;20046;-57
2022/03/29 02:48:43;;;;;;;7.07;4.28;;;;;;;13.77;41.10;98338.28;4992939;28;20046;-56
2022/03/29 02:51:28;;;;;;;10.88;5.07;;;;;;;13.57;38.19;98336.59;4988210;28;20050;-55
2022/03/29 02:54:14;;;;;;;11.05;5.97;;;;;;;13.24;39.11;98334.13;4976379;28;20065;-55
2022/03/29 02:56:59;;;;;;;8.30;3.78;;;;;;;13.64;42.65;98338.56;4992878;28;20117;-53
2022/03/29 02:59:45;;;;;;;9.30;4.07;;;;;;;13.98;41.63;98334.75;4990797;28;20057;-59
2022/03/29 03:02:32;;;;;;;11.55;5.07;;;;;;;13.92;39.22;98330.84;4970906;28;20058;-55
2022/03/29 03:05:19;;;;;;;7.88;4.32;;;;;;;14.24;41.47;98335.97;4969300;28;20042;-54
2022/03/29 03:08:04;;;;;;;6.72;3.55;;;;;;;14.57;41.31;98335.66;4969845;28;20066;-55
2022/03/29 03:10:49;;;;;;;8.00;4.10;;;;;;;14.28;41.51;98327.66;4972938;28;20061;-56
2022/03/29 03:13:35;;;;;;;8.85;4.22;;;;;;;14.28;41.56;98330.28;4973536;28;20051;-57
2022/03/29 03:16:20;;;;;;;8.60;3.45;;;;;;;14.18;40.63;98323.38;4973194;28;20553;-56
2022/03/29 03:19:05;;;;;;;11.48;5.20;;;;;;;14.00;39.74;98326.69;4973296;28;20050;-57
2022/03/29 03:21:50;;;;;;;8.88;3.95;;;;;;;13.60;43.08;98321.38;4973364;28;20502;-56
2022/03/29 03:24:35;;;;;;;16.75;6.78;;;;;;;13.10;40.19;98320.38;4972662;28;20057;-56
2022/03/29 03:27:22;;;;;;;7.70;4.10;;;;;;;13.05;42.98;98320.78;4974361;28;20055;-57
2022/03/29 03:30:12;;;;;;;9.95;4.72;;;;;;;13.53;38.77;98315.81;4973152;28;20406;-56
2022/03/29 03:32:57;;;;;;;8.23;4.60;;;;;;;13.40;43.73;98315.19;4973349;28;20051;-56
2022/03/29 03:35:45;;;;;;;9.40;4.78;;;;;;;13.35;43.42;98307.72;4986140;28;20051;-57
2022/03/29 03:38:30;;;;;;;8.55;4.65;;;;;;;13.88;39.70;98304.94;4973518;28;20058;-54
2022/03/29 03:41:14;;;;;;;9.05;4.57;;;;;;;13.87;40.00;98293.56;4971957;28;20057;-55
2022/03/29 03:43:59;;;;;;;6.75;3.83;;;;;;;13.99;42.85;98310.06;4972787;28;20050;-56
2022/03/29 03:46:43;;;;;;;9.48;4.32;;;;;;;14.08;41.98;98304.94;4974034;28;20055;-56
2022/03/29 03:49:28;;;;;;;10.07;3.90;;;;;;;14.22;41.52;98306.31;4975051;28;20042;-57
2022/03/29 03:52:13;;;;;;;6.82;3.53;;;;;;;14.49;41.09;98302.13;4972211;28;20399;-57
2022/03/29 03:54:58;;;;;;;10.77;3.80;;;;;;;14.51;40.89;98308.06;4973285;28;20053;-57
2022/03/29 03:57:43;;;;;;;6.45;3.80;;;;;;;14.64;41.77;98311.22;4972185;28;20050;-56
2022/03/29 04:00:38;;;;;;;8.65;4.13;;;;;;;14.51;41.83;98305.41;4961963;28;20047;-56
2022/03/29 04:03:23;;;;;;;9.10;4.10;;;;;;;14.70;40.90;98298.44;4975678;28;20078;-56
2022/03/29 04:06:08;;;;;;;7.00;4.13;;;;;;;14.61;40.69;98303.59;4975796;28;20055;-54
2022/03/29 04:08:52;;;;;;;8.07;4.38;;;;;;;14.48;38.96;98301.28;4976628;28;20039;-56
2022/03/29 04:11:37;;;;;;;6.80;3.95;;;;;;;14.48;42.27;98306.56;4976522;28;20055;-57
2022/03/29 04:14:22;;;;;;;7.25;4.28;;;;;;;14.87;41.88;98313.56;4976282;28;20047;-56
2022/03/29 04:17:35;;;;;;;10.35;4.03;;;;;;;15.14;40.82;98308.47;4972744;28;20045;-54
2022/03/29 04:20:24;;;;;;;27.38;17.42;;;;;;;14.65;39.06;98306.78;4971471;28;20550;-55
2022/03/29 04:23:09;;;;;;;16.55;8.55;;;;;;;13.14;40.83;98294.63;4981049;28;20100;-57
2022/03/29 04:25:54;;;;;;;16.33;9.32;;;;;;;13.05;44.93;98307.66;4959941;28;20461;-56
2022/03/29 04:28:39;;;;;;;14.70;8.00;;;;;;;12.57;40.38;98309.91;4976493;28;20511;-56
2022/03/29 04:31:23;;;;;;;18.95;7.45;;;;;;;12.25;40.88;98305.53;4947904;28;20121;-58
2022/03/29 04:34:09;;;;;;;12.38;6.78;;;;;;;12.47;43.84;98306.34;4961523;28;20513;-56
2022/03/29 04:36:53;;;;;;;16.45;7.68;;;;;;;12.47;43.35;98305.56;4975690;28;20102;-55
2022/03/29 04:39:39;;;;;;;14.10;7.10;;;;;;;12.29;43.59;98298.25;4975191;28;20130;-55
2022/03/29 04:42:23;;;;;;;12.07;7.07;;;;;;;13.04;40.85;98292.81;4968846;28;20093;-57
2022/03/29 04:45:09;;;;;;;14.05;6.55;;;;;;;12.27;41.92;98298.34;4974963;28;20343;-56
2022/03/29 04:47:54;;;;;;;16.65;7.25;;;;;;;11.49;44.20;98293.25;4960000;28;20042;-56
2022/03/29 04:50:38;;;;;;;11.18;6.30;;;;;;;11.54;42.84;98299.78;4973415;28;20058;-57
2022/03/29 04:53:23;;;;;;;14.75;6.05;;;;;;;11.46;49.97;98300.41;4974804;28;20043;-54
2022/03/29 04:56:08;;;;;;;18.55;9.15;;;;;;;11.04;44.40;98298.44;4974041;28;20113;-59
2022/03/29 04:58:53;;;;;;;16.50;7.53;;;;;;;10.65;45.13;98306.66;4951259;28;20101;-57
2022/03/29 05:01:39;;;;;;;35.65;17.13;;;;;;;11.67;46.96;98298.84;4979418;28;20469;-53
2022/03/29 05:04:24;;;;;;;32.55;16.95;;;;;;;12.14;46.74;98300.34;4991856;28;20125;-53
2022/03/29 05:07:08;;;;;;;24.23;10.82;;;;;;;12.66;43.44;98303.03;5005093;28;20057;-55
2022/03/29 05:09:53;;;;;;;17.88;9.23;;;;;;;12.78;40.38;98306.41;4995034;28;20401;-56
2022/03/29 05:12:40;;;;;;;18.92;9.65;;;;;;;12.72;43.09;98308.72;4980315;28;20057;-55
2022/03/29 05:15:25;;;;;;;17.08;8.02;;;;;;;13.09;42.09;98302.13;4980383;28;20081;-53
2022/03/29 05:18:10;;;;;;;16.48;7.50;;;;;;;13.29;42.80;98297.72;4979464;28;20050;-57
2022/03/29 05:20:55;;;;;;;17.73;7.30;;;;;;;13.44;42.14;98292.94;4994831;28;20054;-55
2022/03/29 05:23:40;;;;;;;18.75;7.63;;;;;;;13.70;41.13;98283.72;4993812;28;20378;-54
2022/03/29 05:26:25;;;;;;;16.40;7.53;;;;;;;13.84;39.78;98287.75;4993462;28;20054;-54
2022/03/29 05:29:11;;;;;;;16.20;6.72;;;;;;;13.95;41.11;98290.25;4997590;28;20066;-55
2022/03/29 05:31:57;;;;;;;14.77;7.18;;;;;;;14.16;39.98;98286.63;4993189;28;20050;-57
2022/03/29 05:34:41;;;;;;;17.33;7.50;;;;;;;13.82;39.26;98281.78;4992873;28;20042;-55
2022/03/29 05:37:26;;;;;;;13.98;6.88;;;;;;;13.98;40.35;98282.06;4979397;28;20144;-51
2022/03/29 05:40:12;;;;;;;15.57;7.28;;;;;;;14.05;42.00;98282.34;4980760;28;20046;-56
2022/03/29 05:42:57;;;;;;;13.63;6.03;;;;;;;14.34;40.98;98281.47;4997513;28;20453;-55
2022/03/29 05:45:42;;;;;;;14.32;6.55;;;;;;;14.56;39.14;98291.84;4965804;28;20046;-54
2022/03/29 05:51:31;;;;;;;14.05;6.35;;;;;;;14.76;41.82;98285.53;4978745;28;20043;-52
2022/03/29 05:54:17;;;;;;;15.00;6.63;;;;;;;15.30;41.27;98284.06;4993521;28;20053;-53
2022/03/29 05:57:03;;;;;;;15.20;6.53;;;;;;;15.77;36.82;98280.44;4994120;28;20069;-54
2022/03/29 05:59:48;;;;;;;13.45;6.00;;;;;;;16.08;41.04;98281.03;4994139;28;20042;-52
2022/03/29 06:02:32;;;;;;;17.30;6.18;;;;;;;16.29;40.21;98280.72;4992925;28;20182;-52
2022/03/29 06:05:17;;;;;;;13.60;5.90;;;;;;;16.44;38.42;98278.34;4964440;28;20042;-49
2022/03/29 06:08:02;;;;;;;15.05;6.07;;;;;;;16.64;38.55;98280.78;4993638;28;20101;-50
2022/03/29 06:10:46;;;;;;;13.40;5.50;;;;;;;16.52;38.49;98280.19;4994165;28;20065;-52
2022/03/29 06:13:31;;;;;;;13.38;6.05;;;;;;;16.75;36.82;98277.03;4994136;28;20057;-52
2022/03/29 06:16:16;;;;;;;15.52;7.25;;;;;;;16.53;33.81;98265.19;4993609;28;20050;-54
2022/03/29 06:19:01;;;;;;;22.52;7.70;;;;;;;15.84;33.64;98274.53;4992837;28;20098;-50
2022/03/29 06:21:46;;;;;;;14.20;7.07;;;;;;;15.35;35.45;98268.63;4992920;28;20050;-53
2022/03/29 06:24:31;;;;;;;17.42;7.32;;;;;;;15.05;36.37;98275.06;4993648;28;20050;-52
2022/03/29 06:27:16;;;;;;;16.25;7.25;;;;;;;15.26;36.06;98261.59;4993775;28;20038;-52
2022/03/29 06:30:04;;;;;;;18.00;7.70;;;;;;;14.90;36.30;98268.44;4978967;28;20054;-53
2022/03/29 06:32:50;;;;;;;17.05;7.70;;;;;;;15.00;36.48;98260.47;4993530;28;20497;-54
2022/03/29 06:35:37;;;;;;;15.55;7.22;;;;;;;15.78;35.19;98265.44;4978766;28;20053;-54
2022/03/29 06:38:22;;;;;;;14.93;6.75;;;;;;;16.08;34.67;98266.03;4993459;28;20053;-52
2022/03/29 06:41:07;;;;;;;13.75;6.90;;;;;;;15.21;35.96;98269.94;4993423;28;20042;-54
2022/03/29 06:43:52;;;;;;;16.17;7.28;;;;;;;15.07;35.87;98268.63;4978688;28;20077;-51
2022/03/29 06:46:39;;;;;;;16.95;7.78;;;;;;;14.81;36.54;98276.38;4977546;28;20050;-50
2022/03/29 06:49:23;;;;;;;16.42;7.70;;;;;;;15.11;36.22;98280.53;4992620;28;20054;-49
2022/03/29 06:52:08;;;;;;;18.10;7.53;;;;;;;15.45;36.03;98268.56;4977577;28;20061;-51
2022/03/29 06:54:53;;;;;;;20.77;7.43;;;;;;;15.78;35.58;98270.72;4992283;28;20515;-51
2022/03/29 06:57:38;;;;;;;16.27;7.70;;;;;;;16.29;34.66;98272.78;4992450;28;20050;-51
2022/03/29 07:00:22;;;;;;;15.20;7.07;;;;;;;17.32;33.80;98275.63;4992261;28;20413;-53
2022/03/29 07:03:08;;;;;;;12.93;6.93;;;;;;;16.98;34.85;98266.72;4992380;28;20050;-52
2022/03/29 07:05:53;;;;;;;16.20;7.00;;;;;;;17.75;33.40;98260.66;4992421;28;20064;-53
2022/03/29 07:11:16;;;;;;;15.63;6.85;;;;;;;16.90;35.14;98264.06;4991128;28;20042;-49
2022/03/29 07:11:42;;;;;;;14.50;7.57;;;;;;;16.84;35.61;98262.84;4992478;28;20130;-48
2022/03/29 07:14:27;;;;;;;16.45;7.30;;;;;;;16.61;36.01;98263.38;4992372;28;20061;-55
2022/03/29 07:17:13;;;;;;;15.73;7.05;;;;;;;16.99;35.64;98271.03;4992339;28;20070;-48
2022/03/29 07:19:58;;;;;;;15.02;6.00;;;;;;;17.23;34.85;98264.19;4977551;28;20042;-52
2022/03/29 07:22:43;;;;;;;15.05;7.57;;;;;;;17.91;32.63;98270.44;4991081;28;20383;-51
2022/03/29 07:25:31;;;;;;;14.43;6.93;;;;;;;18.14;32.88;98261.84;4977401;28;20046;-50
2022/03/29 07:28:16;;;;;;;15.82;7.68;;;;;;;18.20;32.20;98266.47;4991768;28;20145;-51
2022/03/29 07:31:01;;;;;;;18.33;8.50;;;;;;;17.43;33.38;98266.56;4977283;28;20057;-54
2022/03/29 07:33:46;;;;;;;21.33;8.98;;;;;;;18.05;33.22;98272.41;4976572;28;20531;-52
2022/03/29 07:36:30;;;;;;;20.00;8.75;;;;;;;17.90;31.96;98266.97;4992176;28;20552;-54
2022/03/29 07:39:15;;;;;;;16.52;7.78;;;;;;;18.10;31.03;98269.28;4991771;28;20050;-53
2022/03/29 07:42:00;;;;;;;17.95;7.43;;;;;;;18.16;31.48;98265.19;4977160;28;20482;-52
2022/03/29 07:44:45;;;;;;;18.00;7.07;;;;;;;17.76;31.52;98257.84;4991208;28;20117;-53
2022/03/29 07:47:30;;;;;;;15.30;7.40;;;;;;;18.19;30.87;98263.03;4957994;28;20158;-53
2022/03/29 07:50:15;;;;;;;17.77;8.30;;;;;;;17.52;31.23;98259.47;4972286;28;20600;-54
2022/03/29 07:53:02;;;;;;;18.80;8.82;;;;;;;17.97;31.51;98260.00;4990055;28;20497;-54
2022/03/29 07:55:47;;;;;;;14.52;7.63;;;;;;;18.32;30.76;98264.31;4991628;28;20386;-55
2022/03/29 07:58:31;;;;;;;16.50;7.38;;;;;;;18.59;30.09;98257.81;4991777;28;20053;-51
2022/03/29 08:01:16;;;;;;;16.25;8.00;;;;;;;18.51;29.61;98263.13;4976936;28;20058;-53
2022/03/29 08:04:01;;;;;;;16.88;7.68;;;;;;;18.58;31.03;98263.28;4963232;28;20073;-57
2022/03/29 08:06:46;;;;;;;16.85;7.70;;;;;;;18.80;29.87;98259.06;4990770;28;20133;-53
2022/03/29 08:09:31;;;;;;;16.23;7.80;;;;;;;18.84;29.73;98255.09;4990301;28;20417;-50
2022/03/29 08:12:16;;;;;;;14.75;7.43;;;;;;;18.51;30.31;98254.38;4963090;28;20398;-52
2022/03/29 08:15:01;;;;;;;15.98;7.32;;;;;;;18.74;29.81;98245.66;4991303;28;20113;-52
2022/03/29 08:17:45;;;;;;;15.50;7.63;;;;;;;18.69;29.97;98249.66;4991434;28;20043;-53
2022/03/29 08:20:30;;;;;;;14.90;7.10;;;;;;;19.83;29.40;98246.75;4991191;28;20066;-51
2022/03/29 08:23:15;;;;;;;13.02;6.95;;;;;;;20.29;28.21;98242.41;4991326;28;20080;-52
2022/03/29 08:26:00;;;;;;;16.73;7.68;;;;;;;19.35;28.72;98245.09;4990801;28;20081;-51
2022/03/29 08:28:45;;;;;;;13.82;7.60;;;;;;;19.76;28.44;98244.00;4976020;28;20081;-54
2022/03/29 08:31:30;;;;;;;13.57;7.50;;;;;;;21.24;27.24;98241.00;4971968;28;20047;-57
2022/03/29 08:34:16;;;;;;;20.55;8.35;;;;;;;21.16;26.12;98242.78;4972199;28;20086;-54
2022/03/29 08:37:01;;;;;;;15.18;7.53;;;;;;;20.43;27.70;98246.91;4971795;28;20047;-52
2022/03/29 08:39:46;;;;;;;15.65;7.45;;;;;;;20.52;27.39;98245.00;4971911;28;20097;-53
2022/03/29 08:42:31;;;;;;;14.25;7.45;;;;;;;20.55;27.25;98244.63;4969411;28;20038;-54
2022/03/29 08:45:17;;;;;;;18.92;7.53;;;;;;;20.37;27.56;98238.88;4991191;28;20041;-54
2022/03/29 08:48:02;;;;;;;17.02;7.85;;;;;;;20.92;27.42;98236.75;4975524;28;20041;-51
2022/03/29 08:50:47;;;;;;;14.85;7.32;;;;;;;20.93;27.39;98237.59;4993968;28;20049;-57
2022/03/29 08:53:32;;;;;;;17.65;7.50;;;;;;;21.43;26.20;98234.25;4991738;28;20478;-59
2022/03/29 08:56:17;;;;;;;15.75;7.95;;;;;;;20.65;27.14;98243.53;4991863;28;20123;-53
2022/03/29 08:59:02;;;;;;;17.23;6.80;;;;;;;20.92;27.40;98239.41;4979624;28;20053;-54
2022/03/29 09:01:47;;;;;;;18.83;9.18;;;;;;;21.49;26.74;98230.84;4994629;28;20058;-54
2022/03/29 09:04:32;;;;;;;15.55;7.97;;;;;;;22.49;26.03;98239.06;4994722;28;20489;-52
2022/03/29 09:07:17;;;;;;;17.85;8.38;;;;;;;21.89;25.10;98230.41;4979806;28;20053;-54
2022/03/29 09:10:04;;;;;;;23.80;9.18;;;;;;;22.39;26.29;98229.53;4994353;28;20382;-53
2022/03/29 09:12:49;;;;;;;18.08;8.93;;;;;;;22.49;25.12;98223.88;4980045;28;20054;-53
2022/03/29 09:15:38;;;;;;;20.73;8.93;;;;;;;21.56;25.84;98224.75;4994485;28;20501;-53
2022/03/29 09:18:23;;;;;;;27.40;9.05;;;;;;;21.62;25.49;98216.00;4994134;28;20675;-54
2022/03/29 09:21:13;;;;;;;21.52;8.52;;;;;;;22.41;26.38;98216.00;4979730;28;20057;-54
2022/03/29 09:24:11;;;;;;;21.10;8.55;;;;;;;22.30;25.92;98214.72;4994142;28;20121;-52
2022/03/29 09:26:56;;;;;;;21.58;8.60;;;;;;;22.52;24.46;98210.13;4992431;28;20042;-57
2022/03/29 09:29:41;;;;;;;19.48;8.75;;;;;;;23.75;24.04;98219.41;4979200;28;20054;-54
2022/03/29 09:32:26;;;;;;;15.23;7.95;;;;;;;22.87;28.55;98211.16;4994174;28;20054;-52
2022/03/29 09:35:14;;;;;;;15.40;7.63;;;;;;;23.04;25.89;98216.97;4979129;28;20053;-50
2022/03/29 09:38:01;;;;;;;19.02;8.82;;;;;;;21.75;25.89;98192.16;4993895;28;20524;-54
2022/03/29 09:40:45;;;;;;;17.70;7.38;;;;;;;22.06;23.71;98192.81;4993890;28;20053;-53
2022/03/29 09:44:10;;;;;;;17.45;7.10;;;;;;;23.61;23.65;98192.69;4968477;28;20490;-54
2022/03/29 09:47:04;;;;;;;18.05;7.38;;;;;;;24.59;21.54;98191.34;4992799;28;20088;-55
2022/03/29 09:49:56;;;;;;;15.10;7.32;;;;;;;24.62;21.98;98180.22;4993789;28;20046;-53
2022/03/29 09:52:44;;;;;;;16.75;7.53;;;;;;;23.76;21.23;98183.63;4993360;28;20093;-51
2022/03/29 09:55:29;;;;;;;14.88;7.20;;;;;;;23.16;23.31;98182.47;4993043;28;20042;-53
2022/03/29 09:58:14;;;;;;;13.38;7.53;;;;;;;22.88;22.12;98191.44;4991365;28;20727;-52
2022/03/29 10:01:00;;;;;;;15.75;7.57;;;;;;;23.20;23.64;98182.91;4993429;28;20042;-53
2022/03/29 10:03:45;;;;;;;10.43;6.00;;;;;;;25.13;22.34;98167.03;4993168;28;20060;-48
2022/03/29 10:06:30;;;;;;;14.85;8.10;;;;;;;25.06;20.62;98168.94;4993788;28;20042;-52
2022/03/29 10:09:27;;;;;;;17.13;7.35;;;;;;;25.10;20.79;98162.13;4993672;28;20053;-48
2022/03/29 10:12:13;;;;;;;15.82;7.78;;;;;;;25.15;20.42;98164.16;4965576;28;20074;-48
2022/03/29 10:14:58;;;;;;;17.40;8.40;;;;;;;25.17;20.79;98162.88;4992956;28;20520;-51
2022/03/29 10:17:45;;;;;;;16.92;7.13;;;;;;;25.03;20.80;98150.59;4978729;28;20035;-53
2022/03/29 10:20:30;;;;;;;16.17;7.60;;;;;;;25.10;20.75;98152.19;4993426;28;20051;-51
2022/03/29 10:23:18;;;;;;;19.35;7.15;;;;;;;24.64;21.05;98156.75;4980542;28;20054;-52
2022/03/29 10:26:04;;;;;;;13.57;6.50;;;;;;;25.07;21.84;98141.09;4977810;28;20043;-55
2022/03/29 10:28:49;;;;;;;15.27;7.35;;;;;;;24.31;21.89;98136.25;4991386;28;20066;-51
2022/03/29 10:31:39;;;;;;;16.90;6.68;;;;;;;25.18;20.27;98132.38;4991016;28;20046;-53
2022/03/29 10:34:33;;;;;;;20.33;7.05;;;;;;;24.40;22.61;98136.84;4990572;28;20049;-51
2022/03/29 10:37:21;;;;;;;11.70;6.13;;;;;;;26.46;20.26;98123.44;4976401;28;20157;-50
2022/03/29 10:40:07;;;;;;;17.30;6.70;;;;;;;26.75;18.68;98119.13;4990532;28;20662;-51
2022/03/29 10:42:51;;;;;;;14.65;6.03;;;;;;;25.27;20.50;98114.19;4989932;28;20109;-54
2022/03/29 10:45:36;;;;;;;18.23;6.72;;;;;;;25.39;20.89;98118.84;4992640;28;20383;-52
2022/03/29 10:48:21;;;;;;;16.05;6.75;;;;;;;24.88;20.87;98122.22;4964521;28;20057;-53
2022/03/29 10:51:06;;;;;;;13.57;6.43;;;;;;;24.65;21.27;98118.22;4977873;28;20061;-53
2022/03/29 10:53:50;;;;;;;12.10;6.25;;;;;;;24.93;20.94;98118.94;4992497;28;20069;-49
2022/03/29 10:57:14;;;;;;;12.63;5.75;;;;;;;25.01;20.60;98102.59;4992422;28;20046;-49
2022/03/29 11:00:08;;;;;;;13.65;5.53;;;;;;;24.14;20.91;98107.25;4987920;28;20065;-52
2022/03/29 11:03:10;;;;;;;11.85;4.78;;;;;;;24.58;20.88;98104.06;4976332;28;20112;-54
2022/03/29 11:06:07;;;;;;;9.75;4.07;;;;;;;26.35;19.21;98107.03;4990138;28;20046;-53
2022/03/29 11:09:03;;;;;;;12.00;4.75;;;;;;;25.58;18.88;98103.63;4991224;28;20038;-49
2022/03/29 11:11:50;;;;;;;11.93;4.25;;;;;;;23.96;20.80;98106.06;4986178;28;20169;-52
2022/03/29 11:14:38;;;;;;;7.22;3.90;;;;;;;23.62;20.93;98100.75;4991740;28;20100;-50
2022/03/29 11:17:43;;;;;;;8.35;3.95;;;;;;;23.40;21.51;98086.81;4991082;28;20049;-54
2022/03/29 11:20:34;;;;;;;7.47;3.50;;;;;;;23.56;21.18;98087.41;4991944;28;20050;-51
2022/03/29 11:23:30;;;;;;;7.57;3.80;;;;;;;23.08;21.75;98087.34;4991043;28;20347;-52
2022/03/29 11:26:16;;;;;;;7.35;3.47;;;;;;;23.85;21.03;98087.97;4991309;28;20053;-51
2022/03/29 11:29:02;;;;;;;10.27;4.00;;;;;;;23.34;22.03;98087.59;4976128;28;20042;-51
2022/03/29 11:31:49;;;;;;;10.73;4.35;;;;;;;22.77;22.43;98083.38;4971099;28;20074;-54
2022/03/29 11:34:37;;;;;;;9.52;4.55;;;;;;;22.87;22.41;98073.16;4990871;28;20409;-54
2022/03/29 11:37:30;;;;;;;8.38;4.15;;;;;;;23.30;22.26;98075.66;4974495;28;20555;-53
2022/03/29 11:40:17;;;;;;;9.57;4.50;;;;;;;23.97;21.42;98077.47;4976392;28;20057;-52
2022/03/29 11:43:05;;;;;;;9.25;5.00;;;;;;;22.60;22.34;98078.44;4987442;28;20042;-52
2022/03/29 11:45:52;;;;;;;9.27;4.05;;;;;;;23.42;22.25;98054.53;4990971;28;20544;-53
2022/03/29 11:48:47;;;;;;;7.50;4.80;;;;;;;23.21;22.33;98046.47;4991974;28;20050;-56
2022/03/29 11:51:32;;;;;;;9.80;4.53;;;;;;;23.53;22.05;98047.72;4989691;28;20433;-44
2022/03/29 11:54:19;;;;;;;9.07;5.40;;;;;;;24.51;20.54;98050.56;4991277;28;20350;-52
2022/03/29 11:57:18;;;;;;;8.40;4.40;;;;;;;25.16;20.25;98046.03;4990982;28;20042;-55
2022/03/29 12:00:23;;;;;;;12.63;5.32;;;;;;;24.89;21.19;98034.69;4980315;28;20824;-56
2022/03/29 12:03:08;;;;;;;10.35;5.22;;;;;;;24.97;20.89;98018.38;4971904;28;20137;-50
2022/03/29 12:06:08;;;;;;;12.38;5.97;;;;;;;24.14;19.94;98029.69;4971199;28;20047;-55
2022/03/29 12:09:04;;;;;;;10.48;4.57;;;;;;;24.70;19.99;98019.34;4970757;28;20097;-56
2022/03/29 12:11:53;;;;;;;9.23;5.35;;;;;;;23.92;20.83;98013.09;4982646;28;20046;-56
2022/03/29 12:14:38;;;;;;;9.38;5.30;;;;;;;23.79;20.55;97998.75;4990596;28;20054;-52
2022/03/29 12:17:23;;;;;;;9.70;5.13;;;;;;;24.06;20.41;98005.84;4991673;28;20054;-55
2022/03/29 12:20:08;;;;;;;9.57;5.03;;;;;;;24.26;19.92;98008.47;4991641;28;20089;-59
2022/03/29 12:22:53;;;;;;;10.77;5.20;;;;;;;24.42;20.57;97996.44;4980542;28;20735;-55
2022/03/29 12:25:38;;;;;;;12.13;5.55;;;;;;;25.40;19.38;97989.97;4995333;28;20450;-55
2022/03/29 12:28:24;;;;;;;9.55;4.65;;;;;;;25.42;19.56;97987.06;4979180;28;20042;-56
2022/03/29 12:31:11;;;;;;;11.90;5.65;;;;;;;25.86;18.86;97986.22;4994990;28;20050;-58
2022/03/29 12:33:56;;;;;;;11.45;5.50;;;;;;;25.81;19.35;97981.53;4980617;28;20065;-59
2022/03/29 12:36:49;;;;;;;9.45;5.43;;;;;;;24.96;19.15;97979.22;4994949;28;20046;-58
2022/03/29 12:39:38;;;;;;;10.68;5.38;;;;;;;25.32;18.60;97983.03;4979716;28;20073;-56
2022/03/29 12:42:23;;;;;;;13.10;5.38;;;;;;;24.47;19.91;97967.19;4994616;28;20042;-57
2022/03/29 12:45:08;;;;;;;13.93;5.47;;;;;;;24.12;19.89;97960.34;4993787;28;20046;-58
2022/03/29 12:47:53;;;;;;;12.30;5.22;;;;;;;25.85;19.08;97958.59;4979874;28;20545;-58
2022/03/29 12:50:38;;;;;;;9.93;5.90;;;;;;;25.46;18.68;97945.41;4994669;28;20417;-59
2022/03/29 12:53:23;;;;;;;12.68;5.80;;;;;;;24.41;19.90;97941.28;4994643;28;20054;-57
2022/03/29 12:56:10;;;;;;;10.57;5.63;;;;;;;25.31;19.73;97951.09;4994374;28;20512;-57
2022/03/29 12:58:54;;;;;;;10.95;5.50;;;;;;;24.53;19.43;97941.41;4994498;28;20061;-57